createdAt,value
2018-12-23T00:01:05.381Z,10.70
2018-12-23T00:03:34.051Z,15.97
2018-12-23T00:06:02.573Z,11.07
2018-12-23T00:08:31.265Z,12.17
2018-12-23T00:10:59.818Z,15.93
2018-12-23T00:13:28.391Z,13.10
2018-12-23T00:15:56.996Z,8.93
2018-12-23T00:18:25.499Z,12.87
2018-12-23T00:20:54.022Z,15.07
2018-12-23T00:23:22.613Z,12.63
2018-12-23T00:25:51.286Z,14.60
2018-12-23T00:28:19.806Z,13.93
2018-12-23T00:30:48.314Z,12.43
2018-12-23T00:33:16.851Z,12.47
2018-12-23T00:35:45.446Z,20.70
2018-12-23T00:38:14.005Z,22.83
2018-12-23T00:40:42.581Z,15.67
2018-12-23T00:43:11.101Z,13.37
2018-12-23T00:45:39.716Z,16.47
2018-12-23T00:48:08.217Z,11.73
2018-12-23T00:50:36.779Z,17.93
2018-12-23T00:53:05.299Z,14.87
2018-12-23T00:55:33.821Z,17.43
2018-12-23T00:58:02.526Z,14.17
2018-12-23T01:00:31.066Z,15.87
2018-12-23T01:02:59.609Z,17.57
2018-12-23T01:05:28.867Z,15.20
2018-12-23T01:07:57.817Z,15.53
2018-12-23T01:10:26.343Z,13.00
2018-12-23T01:12:54.834Z,14.57
2018-12-23T01:15:23.414Z,14.77
2018-12-23T01:17:52.148Z,15.70
2018-12-23T01:20:20.678Z,16.53
2018-12-23T01:22:49.199Z,15.07
2018-12-23T01:25:17.712Z,15.27
2018-12-23T01:27:46.201Z,12.67
2018-12-23T01:30:14.718Z,13.90
2018-12-23T01:32:43.251Z,19.00
2018-12-23T01:35:11.710Z,17.47
2018-12-23T01:37:40.188Z,17.60
2018-12-23T01:40:08.696Z,15.00
2018-12-23T01:42:37.196Z,15.60
2018-12-23T01:45:05.823Z,13.43
2018-12-23T01:47:34.347Z,15.70
2018-12-23T01:50:02.818Z,10.00
2018-12-23T01:52:31.345Z,15.00
2018-12-23T01:54:59.872Z,11.57
2018-12-23T01:57:28.345Z,13.07
2018-12-23T01:59:56.881Z,13.90
2018-12-23T02:02:25.433Z,18.13
2018-12-23T02:04:53.947Z,13.30
2018-12-23T02:07:22.538Z,17.10
2018-12-23T02:09:51.282Z,16.67
2018-12-23T02:12:19.756Z,17.47
2018-12-23T02:14:48.359Z,18.10
2018-12-23T02:17:16.910Z,17.60
2018-12-23T02:19:45.421Z,13.50
2018-12-23T02:22:13.958Z,18.47
2018-12-23T02:24:42.495Z,15.53
2018-12-23T02:27:10.995Z,13.87
2018-12-23T02:29:39.529Z,14.03
2018-12-23T02:32:08.081Z,16.83
2018-12-23T02:34:36.595Z,13.93
2018-12-23T02:37:05.130Z,19.30
2018-12-23T02:39:33.683Z,16.60
2018-12-23T02:42:02.193Z,14.07
2018-12-23T02:44:30.721Z,16.87
2018-12-23T02:46:59.221Z,13.77
2018-12-23T02:49:34.381Z,16.33
2018-12-23T02:52:02.888Z,16.17
2018-12-23T02:54:31.496Z,13.10
2018-12-23T02:57:00.059Z,16.43
2018-12-23T02:59:28.601Z,15.73
2018-12-23T03:01:57.111Z,16.20
2018-12-23T03:04:25.662Z,15.77
2018-12-23T03:06:54.109Z,15.90
2018-12-23T03:09:22.691Z,22.87
2018-12-23T03:11:51.286Z,17.13
2018-12-23T03:14:19.743Z,14.63
2018-12-23T03:16:48.257Z,13.80
2018-12-23T03:19:16.741Z,15.87
2018-12-23T03:21:45.240Z,20.87
2018-12-23T03:24:13.712Z,15.00
2018-12-23T03:26:42.212Z,17.87
2018-12-23T03:29:10.818Z,18.63
2018-12-23T03:31:39.380Z,17.60
2018-12-23T03:34:07.892Z,19.73
2018-12-23T03:36:36.436Z,23.17
2018-12-23T03:39:06.279Z,16.77
2018-12-23T03:41:34.781Z,16.67
2018-12-23T03:44:03.316Z,21.27
2018-12-23T03:46:31.811Z,17.17
2018-12-23T03:49:00.295Z,20.63
2018-12-23T03:51:28.804Z,22.43
2018-12-23T03:53:57.385Z,18.97
2018-12-23T03:56:25.973Z,29.03
2018-12-23T03:58:54.487Z,26.13
2018-12-23T04:01:22.953Z,23.13
2018-12-23T04:03:51.622Z,22.30
2018-12-23T04:06:24.393Z,27.33
2018-12-23T04:08:50.823Z,21.53
2018-12-23T04:11:19.317Z,21.70
2018-12-23T04:13:47.794Z,26.83
2018-12-23T04:16:16.294Z,24.73
2018-12-23T04:18:44.755Z,25.30
2018-12-23T04:21:13.274Z,23.77
2018-12-23T04:23:41.756Z,24.03
2018-12-23T04:26:10.220Z,26.53
2018-12-23T04:28:38.746Z,26.23
2018-12-23T04:31:07.247Z,26.17
2018-12-23T04:33:35.705Z,28.50
2018-12-23T04:36:04.240Z,30.13
2018-12-23T04:38:32.736Z,26.97
2018-12-23T04:41:01.293Z,30.03
2018-12-23T04:43:29.854Z,31.80
2018-12-23T04:45:58.490Z,26.30
2018-12-23T04:48:26.963Z,34.93
2018-12-23T04:50:55.482Z,30.43
2018-12-23T04:53:23.952Z,25.80
2018-12-23T04:55:52.474Z,30.90
2018-12-23T04:58:21.007Z,36.80
2018-12-23T05:00:49.624Z,34.13
2018-12-23T05:03:18.109Z,38.33
2018-12-23T05:05:46.551Z,33.73
2018-12-23T05:08:15.060Z,32.97
2018-12-23T05:10:43.555Z,35.37
2018-12-23T05:13:12.016Z,34.47
2018-12-23T05:15:40.524Z,32.27
2018-12-23T05:18:09.104Z,32.30
2018-12-23T05:20:37.709Z,37.73
2018-12-23T05:23:06.221Z,43.90
2018-12-23T05:25:34.670Z,36.60
2018-12-23T05:28:03.206Z,36.43
2018-12-23T05:30:31.708Z,34.17
2018-12-23T05:33:00.205Z,36.27
2018-12-23T05:35:28.788Z,38.67
2018-12-23T05:37:57.290Z,37.40
2018-12-23T05:40:25.795Z,37.33
2018-12-23T05:42:54.269Z,32.90
2018-12-23T05:45:22.737Z,40.53
2018-12-23T05:47:51.872Z,36.37
2018-12-23T05:50:20.340Z,38.43
2018-12-23T05:52:48.861Z,37.73
2018-12-23T05:55:24.575Z,32.97
2018-12-23T05:57:53.958Z,36.80
2018-12-23T06:00:22.440Z,42.53
2018-12-23T06:02:51.027Z,39.77
2018-12-23T06:05:19.543Z,39.43
2018-12-23T06:07:48.014Z,42.00
2018-12-23T06:10:16.497Z,45.63
2018-12-23T06:12:44.996Z,40.43
2018-12-23T06:15:13.460Z,44.07
2018-12-23T06:17:41.983Z,38.30
2018-12-23T06:20:10.478Z,40.97
2018-12-23T06:22:39.005Z,41.33
2018-12-23T06:25:07.498Z,39.07
2018-12-23T06:27:36.011Z,42.73
2018-12-23T06:30:04.680Z,36.33
2018-12-23T06:32:33.193Z,39.17
2018-12-23T06:35:01.678Z,44.00
2018-12-23T06:37:30.259Z,36.40
2018-12-23T06:39:58.730Z,42.57
2018-12-23T06:42:27.267Z,42.90
2018-12-23T06:44:55.782Z,35.87
2018-12-23T06:47:24.302Z,38.73
2018-12-23T06:49:53.016Z,42.00
2018-12-23T06:52:21.505Z,45.63
2018-12-23T06:54:50.769Z,39.63
2018-12-23T06:57:19.401Z,45.87
2018-12-23T06:59:47.884Z,38.17
2018-12-23T07:02:16.351Z,39.60
2018-12-23T07:04:44.845Z,39.07
2018-12-23T07:07:18.605Z,40.17
2018-12-23T07:09:43.946Z,41.87
2018-12-23T07:12:12.512Z,39.67
2018-12-23T07:14:41.089Z,36.20
2018-12-23T07:17:09.568Z,42.27
2018-12-23T07:19:38.055Z,37.73
2018-12-23T07:22:06.569Z,35.83
2018-12-23T07:24:35.050Z,37.70
2018-12-23T07:27:03.515Z,37.10
2018-12-23T07:29:31.987Z,38.57
2018-12-23T07:32:00.500Z,38.83
2018-12-23T07:34:29.101Z,35.07
2018-12-23T07:36:57.644Z,38.27
2018-12-23T07:39:26.229Z,31.80
2018-12-23T07:41:54.766Z,38.47
2018-12-23T07:44:23.251Z,34.13
2018-12-23T07:46:51.955Z,36.30
2018-12-23T07:49:20.474Z,34.73
2018-12-23T07:51:48.996Z,33.70
2018-12-23T07:54:17.551Z,44.43
2018-12-23T07:56:46.074Z,42.77
2018-12-23T07:59:14.607Z,34.53
2018-12-23T08:01:43.093Z,33.07
2018-12-23T08:04:11.593Z,35.17
2018-12-23T08:06:40.080Z,43.27
2018-12-23T08:09:08.562Z,33.97
2018-12-23T08:11:37.084Z,36.47
2018-12-23T08:14:05.569Z,33.07
2018-12-23T08:16:34.114Z,36.20
2018-12-23T08:19:02.570Z,34.80
2018-12-23T08:21:31.137Z,33.83
2018-12-23T08:23:59.662Z,32.47
2018-12-23T08:26:28.197Z,37.13
2018-12-23T08:28:57.236Z,34.77
2018-12-23T08:31:25.716Z,35.67
2018-12-23T08:33:54.264Z,33.90
2018-12-23T08:36:22.789Z,34.80
2018-12-23T08:38:51.463Z,37.20
2018-12-23T08:41:19.997Z,31.07
2018-12-23T08:43:48.550Z,30.40
2018-12-23T08:46:17.008Z,41.13
2018-12-23T08:48:45.655Z,34.00
2018-12-23T08:51:14.741Z,43.73
2018-12-23T08:53:43.243Z,33.53
2018-12-23T08:56:11.804Z,42.27
2018-12-23T08:58:40.345Z,38.40
2018-12-23T09:01:08.834Z,37.10
2018-12-23T09:03:37.356Z,35.23
2018-12-23T09:06:05.916Z,40.03
2018-12-23T09:08:34.450Z,34.63
2018-12-23T09:11:02.979Z,37.57
2018-12-23T09:13:31.542Z,35.67
2018-12-23T09:16:00.160Z,33.70
2018-12-23T09:18:28.664Z,35.43
2018-12-23T09:20:57.221Z,30.07
2018-12-23T09:23:25.802Z,37.30
2018-12-23T09:25:54.303Z,33.53
2018-12-23T09:28:22.836Z,37.40
2018-12-23T09:30:51.501Z,31.80
2018-12-23T09:33:20.018Z,41.80
2018-12-23T09:35:48.644Z,36.63
2018-12-23T09:38:17.145Z,29.60
2018-12-23T09:40:45.639Z,39.33
2018-12-23T09:43:14.936Z,35.63
2018-12-23T09:45:50.528Z,36.20
2018-12-23T09:48:19.106Z,32.07
2018-12-23T09:50:47.615Z,32.97
2018-12-23T09:53:16.143Z,36.23
2018-12-23T09:55:44.633Z,37.37
2018-12-23T09:58:13.202Z,31.97
2018-12-23T10:00:41.826Z,30.57
2018-12-23T10:03:10.369Z,38.43
2018-12-23T10:05:39.199Z,34.73
2018-12-23T10:08:10.224Z,31.20
2018-12-23T10:10:38.418Z,32.80
2018-12-23T10:13:06.975Z,32.27
2018-12-23T10:15:35.468Z,33.40
2018-12-23T10:18:04.018Z,33.90
2018-12-23T10:20:32.505Z,28.73
2018-12-23T10:23:01.028Z,29.90
2018-12-23T10:25:29.540Z,35.70
2018-12-23T10:27:58.132Z,35.97
2018-12-23T10:30:26.695Z,34.93
2018-12-23T10:32:55.247Z,34.60
2018-12-23T10:35:23.763Z,37.90
2018-12-23T10:37:52.499Z,40.07
2018-12-23T10:40:21.042Z,35.83
2018-12-23T10:42:49.570Z,34.10
2018-12-23T10:45:18.096Z,42.83
2018-12-23T10:47:46.657Z,35.03
2018-12-23T10:50:15.396Z,34.50
2018-12-23T10:52:43.921Z,39.77
2018-12-23T10:55:12.511Z,33.50
2018-12-23T10:57:41.099Z,34.83
2018-12-23T11:00:11.439Z,36.53
2018-12-23T11:02:39.938Z,41.53
2018-12-23T11:05:08.477Z,35.97
2018-12-23T11:07:37.006Z,35.77
2018-12-23T11:10:06.297Z,34.17
2018-12-23T11:12:34.884Z,32.93
2018-12-23T11:15:03.387Z,34.53
2018-12-23T11:17:31.950Z,36.77
2018-12-23T11:20:00.506Z,37.60
2018-12-23T11:22:29.102Z,38.73
2018-12-23T11:24:57.615Z,34.70
2018-12-23T11:27:26.248Z,42.93
2018-12-23T11:29:54.869Z,35.20
2018-12-23T11:32:23.346Z,33.27
2018-12-23T11:34:51.846Z,36.57
2018-12-23T11:37:20.463Z,32.57
2018-12-23T11:39:49.020Z,34.03
2018-12-23T11:42:17.539Z,37.73
2018-12-23T11:44:46.159Z,38.93
2018-12-23T11:47:14.720Z,38.97
2018-12-23T11:49:43.330Z,34.37
2018-12-23T11:52:11.915Z,37.47
2018-12-23T11:54:40.463Z,34.87
2018-12-23T11:57:09.078Z,38.53
2018-12-23T11:59:37.602Z,28.13
2018-12-23T12:02:06.116Z,41.53
2018-12-23T12:22:24.228Z,15.97
2018-12-23T12:24:54.025Z,14.90
2018-12-23T12:27:23.637Z,13.00
2018-12-23T12:29:53.252Z,14.87
2018-12-23T12:32:22.888Z,12.77
2018-12-23T12:34:52.501Z,15.23
2018-12-23T12:37:22.110Z,14.67
2018-12-23T12:39:51.737Z,11.13
2018-12-23T12:42:21.287Z,10.53
2018-12-23T12:44:53.653Z,12.73
2018-12-23T12:47:23.260Z,10.13
2018-12-23T12:49:52.895Z,14.40
2018-12-23T12:52:22.478Z,11.90
2018-12-23T12:54:52.106Z,9.00
2018-12-23T12:57:21.712Z,10.60
2018-12-23T12:59:51.328Z,12.63
2018-12-23T13:02:20.930Z,11.73
2018-12-23T13:04:50.590Z,14.47
2018-12-23T13:07:20.232Z,14.43
2018-12-23T13:09:49.856Z,15.13
2018-12-23T13:12:19.525Z,16.87
2018-12-23T13:14:49.213Z,15.33
2018-12-23T13:17:18.821Z,17.10
2018-12-23T13:19:48.454Z,16.50
2018-12-23T13:22:18.109Z,17.67
2018-12-23T13:24:47.722Z,16.73
2018-12-23T13:27:17.321Z,17.07
2018-12-23T13:29:46.968Z,17.17
2018-12-23T13:32:16.676Z,17.67
2018-12-23T13:34:46.310Z,16.50
2018-12-23T13:37:15.892Z,15.13
2018-12-23T13:39:45.459Z,19.20
2018-12-23T13:43:08.148Z,18.50
2018-12-23T13:46:06.792Z,18.13
2018-12-23T13:48:58.962Z,14.30
2018-12-23T13:51:59.134Z,20.47
2018-12-23T13:55:04.284Z,18.33
2018-12-23T13:58:21.772Z,19.13
2018-12-23T14:01:15.580Z,18.30
2018-12-23T14:04:08.552Z,19.43
2018-12-23T14:07:19.394Z,17.57
2018-12-23T14:10:27.340Z,20.30
2018-12-23T14:12:56.937Z,17.13
2018-12-23T14:15:26.500Z,21.30
2018-12-23T14:17:56.081Z,16.83
2018-12-23T14:20:25.710Z,17.23
2018-12-23T14:22:55.276Z,20.40
2018-12-23T14:25:24.921Z,18.63
2018-12-23T14:27:54.534Z,23.07
2018-12-23T14:30:24.152Z,19.50
2018-12-23T14:32:53.884Z,20.20
2018-12-23T14:35:23.537Z,20.40
2018-12-23T14:37:53.206Z,20.30
2018-12-23T14:40:22.839Z,20.07
2018-12-23T14:42:52.479Z,23.87
2018-12-23T14:45:22.066Z,21.20
2018-12-23T14:47:51.732Z,21.70
2018-12-23T14:50:23.770Z,19.70
2018-12-23T14:52:53.419Z,20.10
2018-12-23T14:55:22.997Z,15.67
2018-12-23T14:57:52.658Z,15.40
2018-12-23T15:00:22.329Z,14.47
2018-12-23T15:02:52.032Z,15.07
2018-12-23T15:05:21.635Z,13.07
2018-12-23T15:07:51.267Z,16.77
2018-12-23T15:10:20.857Z,12.93
2018-12-23T15:12:50.512Z,11.00
2018-12-23T15:15:20.145Z,12.43
2018-12-23T15:17:49.733Z,11.13
2018-12-23T15:20:19.459Z,12.70
2018-12-23T15:22:49.064Z,9.27
2018-12-23T15:25:18.729Z,10.93
2018-12-23T15:27:48.321Z,11.60
2018-12-23T15:30:17.978Z,9.83
2018-12-23T15:32:47.604Z,7.37
2018-12-23T15:35:17.211Z,9.13
2018-12-23T15:37:46.875Z,10.03
2018-12-23T15:40:16.526Z,8.73
2018-12-23T15:42:46.115Z,11.47
2018-12-23T15:45:15.759Z,9.83
2018-12-23T15:47:45.357Z,10.27
2018-12-23T15:50:15.073Z,12.27
2018-12-23T15:52:44.735Z,10.33
2018-12-23T15:55:14.331Z,9.53
2018-12-23T15:57:43.936Z,8.77
2018-12-23T16:00:13.548Z,11.20
2018-12-23T16:02:43.124Z,7.33
2018-12-23T16:05:12.748Z,8.13
2018-12-23T16:07:42.350Z,9.43
2018-12-23T16:10:12.033Z,8.93
2018-12-23T16:12:41.737Z,9.63
2018-12-23T16:15:11.345Z,11.33
2018-12-23T16:17:40.963Z,7.00
2018-12-23T16:20:12.397Z,8.00
2018-12-23T16:22:42.007Z,11.73
2018-12-23T16:25:11.577Z,9.57
2018-12-23T16:27:41.276Z,11.53
2018-12-23T16:30:11.682Z,11.43
2018-12-23T16:32:41.380Z,9.80
2018-12-23T16:35:10.999Z,10.40
2018-12-23T16:37:40.588Z,10.23
2018-12-23T16:40:12.276Z,9.23
2018-12-23T16:42:41.888Z,9.70
2018-12-23T16:45:12.629Z,13.20
2018-12-23T16:47:42.220Z,8.50
2018-12-23T16:50:11.890Z,8.87
2018-12-23T16:52:44.016Z,9.80
2018-12-23T16:55:13.671Z,11.13
2018-12-23T16:57:43.258Z,10.40
2018-12-23T17:00:14.612Z,12.83
2018-12-23T17:02:44.222Z,10.37
2018-12-23T17:05:13.876Z,13.93
2018-12-23T17:07:46.297Z,10.73
2018-12-23T17:10:15.866Z,10.67
2018-12-23T17:12:45.466Z,10.97
2018-12-23T17:15:15.159Z,13.17
2018-12-23T17:17:44.813Z,16.03
2018-12-23T17:20:14.965Z,17.87
2018-12-23T17:22:44.596Z,11.67
2018-12-23T17:25:18.608Z,16.20
2018-12-23T17:27:48.257Z,15.47
2018-12-23T17:30:19.464Z,14.00
2018-12-23T17:32:49.093Z,13.73
2018-12-23T17:35:20.401Z,12.70
2018-12-23T17:37:52.689Z,14.33
2018-12-23T17:40:22.284Z,19.17
2018-12-23T17:42:54.680Z,19.10
2018-12-23T17:45:31.923Z,16.63
2018-12-23T17:48:14.323Z,17.87
2018-12-23T17:50:56.698Z,16.93
2018-12-23T17:53:35.571Z,17.33
2018-12-23T17:56:11.714Z,18.97
2018-12-23T17:58:44.325Z,18.17
2018-12-23T18:01:14.048Z,18.63
2018-12-23T18:03:46.252Z,13.17
2018-12-23T18:06:20.884Z,16.53
2018-12-23T18:08:54.516Z,12.53
2018-12-23T18:11:26.429Z,18.07
2018-12-23T18:14:00.736Z,14.77
2018-12-23T18:16:34.724Z,16.37
2018-12-23T18:19:06.298Z,14.70
2018-12-23T18:21:48.457Z,13.40
2018-12-23T18:24:28.972Z,15.17
2018-12-23T18:27:06.044Z,11.00
2018-12-23T18:29:38.497Z,11.30
2018-12-23T18:32:09.829Z,11.33
2018-12-23T18:34:40.608Z,11.10
2018-12-23T18:37:13.369Z,11.37
2018-12-23T18:39:46.611Z,8.80
2018-12-23T18:42:21.808Z,9.87
2018-12-23T18:44:52.687Z,13.53
2018-12-23T18:47:36.169Z,12.50
2018-12-23T18:50:07.203Z,13.43
2018-12-23T18:52:43.655Z,11.43
2018-12-23T18:55:18.701Z,11.23
2018-12-23T18:57:53.000Z,11.17
2018-12-23T19:00:28.666Z,11.20
2018-12-23T19:03:06.202Z,12.27
2018-12-23T19:05:41.067Z,14.53
2018-12-23T19:08:32.377Z,13.43
2018-12-23T19:11:52.163Z,13.83
2018-12-23T19:14:58.982Z,17.33
2018-12-23T19:17:59.193Z,14.80
2018-12-23T19:21:22.204Z,18.20
2018-12-23T19:24:31.924Z,14.00
2018-12-23T19:27:57.383Z,19.20
2018-12-23T19:31:41.272Z,18.63
2018-12-23T19:34:57.998Z,20.70
2018-12-23T19:38:23.662Z,17.80
2018-12-23T19:41:53.171Z,14.40
2018-12-23T19:45:01.347Z,16.80
2018-12-23T19:48:14.311Z,16.33
2018-12-23T19:51:51.878Z,18.40
2018-12-23T19:55:07.030Z,17.87
2018-12-23T19:58:16.640Z,20.63
2018-12-23T20:01:26.657Z,19.80
2018-12-23T20:04:40.754Z,20.57
2018-12-23T20:08:01.725Z,20.20
2018-12-23T20:11:14.331Z,20.30
2018-12-23T20:14:29.512Z,22.73
2018-12-23T20:17:58.787Z,20.00
2018-12-23T20:21:16.613Z,24.33
2018-12-23T20:24:38.343Z,24.83
2018-12-23T20:27:55.139Z,24.50
2018-12-23T20:31:14.347Z,20.53
2018-12-23T20:34:29.881Z,22.63
2018-12-23T20:37:29.465Z,27.00
2018-12-23T20:40:45.387Z,30.37
2018-12-23T20:44:17.171Z,26.27
2018-12-23T20:47:50.514Z,28.47
2018-12-23T20:50:58.759Z,22.47
2018-12-23T20:54:07.804Z,24.33
2018-12-23T20:57:08.919Z,26.17
2018-12-23T21:00:19.703Z,23.27
2018-12-23T21:03:38.135Z,27.33
2018-12-23T21:06:55.111Z,21.87
2018-12-23T21:10:26.674Z,25.03
2018-12-23T21:13:46.706Z,25.47
2018-12-23T21:17:02.263Z,23.37
2018-12-23T21:20:12.378Z,24.40
2018-12-23T21:23:37.941Z,23.97
2018-12-23T21:26:57.265Z,19.00
2018-12-23T21:30:23.555Z,16.90
2018-12-23T21:33:45.281Z,14.10
2018-12-23T21:36:55.531Z,13.97
2018-12-23T21:39:56.878Z,12.20
2018-12-23T21:43:03.521Z,10.60
2018-12-23T21:45:59.892Z,13.83
2018-12-23T21:49:19.885Z,10.50
2018-12-23T21:52:22.123Z,10.90
2018-12-23T21:55:39.014Z,11.37
2018-12-23T21:58:56.639Z,11.53
2018-12-23T22:01:58.928Z,12.10
2018-12-23T22:05:11.809Z,14.47
2018-12-23T22:08:19.829Z,12.37
2018-12-23T22:11:33.268Z,9.30
2018-12-23T22:14:07.160Z,9.53
2018-12-23T22:16:49.034Z,10.80
2018-12-23T22:19:27.932Z,9.47
2018-12-23T22:25:08.708Z,9.87
2018-12-23T22:27:48.742Z,10.13
2018-12-23T22:30:25.731Z,11.37
2018-12-23T22:33:01.590Z,9.93
2018-12-23T22:35:36.806Z,11.23
2018-12-23T22:38:12.807Z,12.50
2018-12-23T22:40:54.288Z,11.67
2018-12-23T22:43:42.853Z,10.40
2018-12-23T22:46:26.177Z,11.47
2018-12-23T22:49:30.256Z,12.60
2018-12-23T22:52:15.760Z,11.57
2018-12-23T22:54:47.035Z,12.97
2018-12-23T22:57:32.807Z,12.90
2018-12-23T23:00:12.675Z,11.10
2018-12-23T23:03:10.284Z,11.50
2018-12-23T23:05:49.972Z,9.80
2018-12-23T23:08:43.592Z,10.87
2018-12-23T23:11:24.568Z,13.40
2018-12-23T23:13:59.761Z,10.07
2018-12-23T23:16:36.144Z,10.97
2018-12-23T23:19:06.858Z,12.77
2018-12-23T23:21:55.066Z,11.83
2018-12-23T23:24:29.284Z,9.83
2018-12-23T23:27:38.091Z,10.73
2018-12-23T23:30:04.877Z,12.80
2018-12-23T23:32:50.958Z,13.27
2018-12-23T23:35:24.308Z,11.37
2018-12-23T23:38:17.120Z,12.63
2018-12-23T23:40:55.761Z,12.20
2018-12-23T23:43:37.746Z,11.63
2018-12-23T23:46:42.378Z,11.93
2018-12-23T23:49:21.514Z,14.13
2018-12-23T23:52:08.263Z,10.07
2018-12-23T23:54:45.520Z,14.00
2018-12-23T23:57:43.461Z,12.23
